Time;durP1;ratioP1;P1;durP2;ratioP2;P2;SDS_P1;SDS_P2;PMS_P1;PMS_P2;Temp;Humidity;BMP_temperature;BMP_pressure;BME280_temperature;BME280_humidity;BME280_pressure;Samples;Min_cycle;Max_cycle;Signal;HPM_P1;HPM_P2
2023/10/08 00:00:49;;;;;;;8.02;3.60;;;;;;;20.90;56.77;102232.13;4945436;28;20097;-77
2023/10/08 00:03:16;;;;;;;5.53;2.95;;;;;;;20.89;56.96;102236.59;4932236;28;20133;-71
2023/10/08 00:05:42;;;;;;;6.60;2.75;;;;;;;20.88;56.80;102236.69;4941825;28;20046;-72
2023/10/08 00:08:09;;;;;;;6.38;3.10;;;;;;;20.87;56.79;102242.94;4946978;28;20039;-72
2023/10/08 00:10:42;;;;;;;7.32;3.20;;;;;;;20.88;56.49;102253.44;4947741;28;20121;-71
2023/10/08 00:13:12;;;;;;;6.35;3.10;;;;;;;20.89;56.36;102246.34;4947140;28;20059;-73
2023/10/08 00:15:41;;;;;;;5.70;2.70;;;;;;;20.89;56.58;102238.41;4947718;28;20067;-75
2023/10/08 00:18:11;;;;;;;6.20;2.90;;;;;;;20.88;56.49;102249.94;4932221;28;20034;-72
2023/10/08 00:20:47;;;;;;;5.90;2.80;;;;;;;20.89;56.44;102252.50;4936419;28;20033;-77
2023/10/08 00:23:12;;;;;;;6.03;2.83;;;;;;;20.88;56.59;102249.94;4925130;28;20035;-73
2023/10/08 00:25:40;;;;;;;6.90;3.47;;;;;;;20.87;56.60;102246.47;4944477;28;20119;-73
2023/10/08 00:28:10;;;;;;;6.30;3.08;;;;;;;20.86;56.73;102260.66;4946368;28;20598;-78
2023/10/08 00:30:38;;;;;;;5.55;2.75;;;;;;;20.86;56.21;102258.00;4947076;28;20038;-73
2023/10/08 00:33:04;;;;;;;6.55;3.00;;;;;;;20.86;56.02;102254.50;4944985;28;20055;-72
2023/10/08 00:35:30;;;;;;;5.45;3.00;;;;;;;20.85;56.44;102258.94;4942158;28;20093;-74
2023/10/08 00:38:00;;;;;;;6.43;3.13;;;;;;;20.85;56.25;102261.59;4945972;28;20035;-78
2023/10/08 00:40:35;;;;;;;6.05;3.00;;;;;;;20.85;56.00;102261.59;4945683;28;20032;-75
2023/10/08 00:43:03;;;;;;;5.57;2.60;;;;;;;20.86;56.10;102255.34;4943841;28;20036;-75
2023/10/08 00:45:30;;;;;;;6.65;3.17;;;;;;;20.85;56.12;102253.66;4943956;28;20062;-76
2023/10/08 00:47:56;;;;;;;6.30;3.13;;;;;;;20.84;56.05;102259.91;4943015;28;20031;-74
2023/10/08 00:50:31;;;;;;;5.97;2.85;;;;;;;20.83;56.04;102264.34;4945924;28;20102;-72
2023/10/08 00:53:00;;;;;;;6.82;3.50;;;;;;;20.86;56.15;102267.75;4944761;28;20031;-75
2023/10/08 00:55:30;;;;;;;6.82;3.15;;;;;;;20.84;56.02;102274.00;4946164;28;20055;-72
2023/10/08 00:57:58;;;;;;;5.78;2.63;;;;;;;20.83;56.10;102274.94;4943762;28;20031;-74
2023/10/08 01:00:32;;;;;;;6.22;3.03;;;;;;;20.82;55.81;102272.41;4945628;28;20145;-71
2023/10/08 01:03:00;;;;;;;;;;;;;;;20.87;56.02;102272.09;4944300;28;20110;-75
2023/10/08 01:05:42;;;;;;;6.97;3.17;;;;;;;20.85;55.80;102261.59;4944962;28;19933;-75
2023/10/08 01:08:08;;;;;;;6.35;2.83;;;;;;;20.84;55.73;102265.22;4930468;28;20496;-80
2023/10/08 01:10:35;;;;;;;6.97;3.47;;;;;;;20.83;55.77;102259.06;4945488;28;20039;-73
2023/10/08 01:15:29;;;;;;;6.20;2.80;;;;;;;20.81;55.71;102253.03;4945303;28;20432;-74
2023/10/08 01:18:00;;;;;;;9.40;2.88;;;;;;;20.78;55.98;102234.69;4945113;28;20328;-78
2023/10/08 01:20:38;;;;;;;6.38;3.13;;;;;;;20.80;56.03;102253.13;4945308;28;20043;-76
2023/10/08 01:23:16;;;;;;;9.50;3.40;;;;;;;20.80;56.07;102255.78;4947616;28;20671;-72
2023/10/08 01:25:43;;;;;;;5.82;2.92;;;;;;;20.79;55.52;102249.66;4947159;28;20090;-72
2023/10/08 01:28:17;;;;;;;6.18;3.03;;;;;;;20.78;55.85;102247.09;4936804;28;20096;-72
2023/10/08 01:30:46;;;;;;;6.88;3.00;;;;;;;20.78;55.83;102244.44;4945987;28;20503;-76
2023/10/08 01:33:12;;;;;;;5.57;2.97;;;;;;;20.78;55.75;102234.69;4947929;28;20031;-72
2023/10/08 01:35:38;;;;;;;7.80;3.05;;;;;;;20.77;55.78;102227.69;4947995;28;20038;-73
2023/10/08 01:38:06;;;;;;;6.43;3.00;;;;;;;20.78;55.67;102231.22;4946000;28;20035;-72
2023/10/08 01:40:32;;;;;;;7.00;3.10;;;;;;;20.76;55.72;102226.03;4945664;28;20488;-72
2023/10/08 01:42:59;;;;;;;5.78;2.50;;;;;;;20.77;55.85;102225.03;4947382;28;20031;-79
2023/10/08 01:45:26;;;;;;;6.88;3.33;;;;;;;20.77;55.47;102225.03;4949341;28;20050;-74
2023/10/08 01:47:53;;;;;;;6.53;3.00;;;;;;;20.77;55.48;102226.84;4949971;28;20030;-73
2023/10/08 01:50:21;;;;;;;6.30;2.85;;;;;;;20.76;55.71;102226.03;4948773;28;20027;-72
2023/10/08 01:52:48;;;;;;;6.50;3.03;;;;;;;20.76;55.64;102236.63;4947320;28;20555;-73
2023/10/08 01:55:19;;;;;;;7.95;2.85;;;;;;;20.75;55.87;102240.22;4945807;28;20123;-72
2023/10/08 01:57:54;;;;;;;5.90;2.95;;;;;;;20.74;55.83;102235.00;4943795;28;20158;-79
2023/10/08 02:00:19;;;;;;;7.45;3.05;;;;;;;20.75;55.65;102248.16;4947750;28;20043;-78
2023/10/08 02:02:50;;;;;;;6.30;3.05;;;;;;;20.74;55.73;102249.09;4947625;28;20031;-78
2023/10/08 02:05:18;;;;;;;6.75;3.13;;;;;;;20.76;55.70;102262.25;4946166;28;20097;-72
2023/10/08 02:07:44;;;;;;;6.57;3.17;;;;;;;20.75;55.44;102268.50;4946009;28;20041;-76
2023/10/08 02:10:10;;;;;;;5.63;2.90;;;;;;;20.74;55.67;102257.03;4943466;28;20142;-75
2023/10/08 02:12:37;;;;;;;6.15;3.05;;;;;;;20.74;55.54;102269.47;4948358;28;20539;-72
2023/10/08 02:15:03;;;;;;;6.80;3.20;;;;;;;20.74;55.66;102270.28;4948435;28;20035;-73
2023/10/08 02:17:28;;;;;;;6.43;3.13;;;;;;;20.73;55.73;102255.38;4947818;28;20563;-76
2023/10/08 02:19:54;;;;;;;7.70;3.20;;;;;;;20.73;55.54;102252.72;4948198;28;20031;-72
2023/10/08 02:22:19;;;;;;;5.40;3.20;;;;;;;20.72;55.41;102250.19;4948003;28;20035;-74
2023/10/08 02:24:44;;;;;;;7.13;2.88;;;;;;;20.74;55.35;102264.16;4955333;28;20507;-72
2023/10/08 02:27:10;;;;;;;8.30;3.13;;;;;;;20.73;55.45;102250.06;4955446;28;20038;-72
2023/10/08 02:29:35;;;;;;;5.72;2.88;;;;;;;20.73;55.27;102263.31;4955272;28;20047;-78
2023/10/08 02:32:01;;;;;;;5.60;2.97;;;;;;;20.73;55.34;102254.50;4954351;28;20038;-73
2023/10/08 02:34:26;;;;;;;6.82;3.30;;;;;;;20.73;55.52;102250.06;4953894;28;20507;-75
2023/10/08 02:36:52;;;;;;;7.70;3.20;;;;;;;20.72;55.20;102252.84;4955255;28;20039;-72
2023/10/08 02:39:25;;;;;;;6.40;3.13;;;;;;;20.72;55.06;102258.13;4954513;28;20035;-73
2023/10/08 02:41:52;;;;;;;7.68;3.20;;;;;;;20.71;55.38;102254.66;4943983;28;20358;-73
2023/10/08 02:44:20;;;;;;;7.78;3.00;;;;;;;20.72;55.13;102266.06;4951642;28;20093;-75
2023/10/08 02:46:47;;;;;;;5.63;2.80;;;;;;;20.71;55.27;102261.72;4953447;28;20030;-72
2023/10/08 02:49:16;;;;;;;6.55;2.90;;;;;;;20.70;55.27;102275.94;4951488;28;20034;-76
2023/10/08 02:51:44;;;;;;;6.28;3.03;;;;;;;20.70;54.88;102286.53;4953572;28;20035;-72
2023/10/08 02:54:20;;;;;;;7.70;3.30;;;;;;;20.69;55.22;102276.88;4932091;28;20480;-76
2023/10/08 02:56:47;;;;;;;6.63;3.15;;;;;;;20.70;55.11;102278.59;4933138;28;20071;-72
2023/10/08 02:59:13;;;;;;;5.90;2.83;;;;;;;20.69;55.16;102282.19;4946260;28;20043;-76
2023/10/08 03:01:42;;;;;;;6.80;3.28;;;;;;;20.68;55.01;102284.00;4946560;28;20039;-80
2023/10/08 03:04:19;;;;;;;5.57;2.78;;;;;;;20.68;55.20;102281.34;4944451;28;20031;-73
2023/10/08 03:06:54;;;;;;;6.47;3.05;;;;;;;20.65;55.17;102266.50;4946694;28;20620;-73
2023/10/08 03:09:23;;;;;;;7.55;3.35;;;;;;;20.67;55.04;102279.63;4943227;28;20508;-72
2023/10/08 03:11:50;;;;;;;6.85;2.90;;;;;;;20.68;55.12;102280.47;4941769;28;20093;-73
2023/10/08 03:14:21;;;;;;;7.18;3.25;;;;;;;20.67;55.40;102277.00;4944005;28;20038;-72
2023/10/08 03:16:52;;;;;;;5.93;2.90;;;;;;;20.68;55.02;102283.13;4941418;28;20043;-75
2023/10/08 03:19:19;;;;;;;5.57;2.67;;;;;;;20.68;55.16;102286.66;4943230;28;20031;-81
2023/10/08 03:21:55;;;;;;;4.95;2.50;;;;;;;20.65;55.34;102295.63;4942774;28;20038;-72
2023/10/08 03:24:37;;;;;;;6.40;3.35;;;;;;;20.66;55.27;102296.47;4947464;28;20035;-72
2023/10/08 03:27:20;;;;;;;7.95;2.95;;;;;;;20.66;55.50;102291.19;4947130;28;20042;-73
2023/10/08 03:29:46;;;;;;;6.80;3.10;;;;;;;20.67;55.31;102307.94;4946985;28;20051;-75
2023/10/08 03:32:15;;;;;;;6.68;3.30;;;;;;;20.66;55.39;102307.06;4943825;28;20042;-72
2023/10/08 03:34:46;;;;;;;6.65;3.33;;;;;;;20.66;55.38;102296.47;4929925;28;20094;-77
2023/10/08 03:37:19;;;;;;;6.50;2.83;;;;;;;20.64;55.03;102298.41;4935225;28;20034;-73
2023/10/08 03:39:51;;;;;;;5.03;2.65;;;;;;;20.67;55.22;102300.00;4942134;28;20035;-75
2023/10/08 03:42:23;;;;;;;6.07;3.00;;;;;;;20.64;55.15;102298.41;4942418;28;20035;-80
2023/10/08 03:44:52;;;;;;;6.97;3.00;;;;;;;20.64;55.22;102303.69;4942324;28;20043;-78
2023/10/08 03:47:19;;;;;;;6.18;2.85;;;;;;;20.65;55.01;102306.25;4942918;28;20042;-73
2023/10/08 03:49:46;;;;;;;6.88;2.75;;;;;;;20.65;55.27;102298.28;4941410;28;20063;-76
2023/10/08 03:52:12;;;;;;;7.40;3.30;;;;;;;20.63;55.06;102297.53;4943676;28;20054;-73
2023/10/08 03:54:42;;;;;;;5.97;2.90;;;;;;;20.64;55.47;102301.03;4941368;28;20039;-72
2023/10/08 03:57:15;;;;;;;8.00;3.60;;;;;;;20.63;54.91;102294.88;4944306;28;20960;-72
2023/10/08 03:59:41;;;;;;;6.78;2.95;;;;;;;20.65;55.01;102300.09;4944720;28;20031;-72
2023/10/08 04:02:32;;;;;;;5.80;2.50;;;;;;;20.63;54.95;102296.66;4944838;28;20082;-79
2023/10/08 04:04:57;;;;;;;6.20;3.22;;;;;;;20.64;54.82;102299.22;4947729;28;20039;-74
2023/10/08 04:07:28;;;;;;;6.32;2.70;;;;;;;20.63;54.97;102302.81;4945199;28;20031;-76
2023/10/08 04:12:35;;;;;;;6.07;2.80;;;;;;;20.63;54.67;102291.34;4944578;28;20035;-79
2023/10/08 04:15:07;;;;;;;6.40;3.20;;;;;;;20.62;55.20;102302.94;4944306;28;20473;-78
2023/10/08 04:17:38;;;;;;;7.72;3.40;;;;;;;20.62;55.03;102303.75;4941009;28;20043;-73
2023/10/08 04:20:30;;;;;;;6.45;2.97;;;;;;;20.61;55.21;102301.22;4926944;28;20203;-74
2023/10/08 04:22:53;;;;;;;5.95;3.13;;;;;;;20.62;55.06;102308.22;4943763;28;20653;-72
2023/10/08 04:25:19;;;;;;;5.40;2.60;;;;;;;20.61;54.71;102309.16;4946344;28;20821;-72
2023/10/08 04:27:48;;;;;;;7.43;3.03;;;;;;;20.62;55.11;102310.88;4928197;28;20039;-74
2023/10/08 04:30:13;;;;;;;5.60;2.72;;;;;;;20.61;54.86;102325.06;4946405;28;20059;-80
2023/10/08 04:32:39;;;;;;;8.38;2.90;;;;;;;20.61;54.94;102328.53;4944512;28;20057;-72
2023/10/08 04:35:07;;;;;;;6.63;3.67;;;;;;;20.60;54.88;102332.16;4945260;28;20085;-72
2023/10/08 04:37:33;;;;;;;6.50;2.85;;;;;;;20.61;54.98;102330.34;4944684;28;20073;-74
2023/10/08 04:39:59;;;;;;;5.85;2.88;;;;;;;20.60;55.05;102318.91;4943985;28;20118;-73
2023/10/08 04:42:27;;;;;;;5.30;3.10;;;;;;;20.60;55.06;102326.00;4945917;28;20027;-76
2023/10/08 04:44:54;;;;;;;8.23;3.25;;;;;;;20.60;54.79;102326.88;4944154;28;20035;-78
2023/10/08 04:47:32;;;;;;;6.75;3.20;;;;;;;20.59;55.00;102327.81;4944109;28;20075;-73
2023/10/08 04:49:57;;;;;;;7.82;3.22;;;;;;;20.59;55.07;102333.09;4944541;28;20043;-77
2023/10/08 04:52:25;;;;;;;9.88;3.45;;;;;;;20.59;54.88;102333.09;4942655;28;20409;-80
2023/10/08 04:54:54;;;;;;;7.97;4.00;;;;;;;20.59;54.92;102340.22;4944605;28;20144;-73
2023/10/08 04:57:25;;;;;;;6.47;2.97;;;;;;;20.58;54.71;102349.94;4944744;28;20036;-72
2023/10/08 04:59:51;;;;;;;7.18;3.38;;;;;;;20.59;54.86;102340.22;4944044;28;20031;-75
2023/10/08 05:02:20;;;;;;;7.47;3.25;;;;;;;20.58;54.71;102341.16;4926529;28;20038;-78
2023/10/08 05:13:01;;;;;;;8.15;2.78;;;;;;;20.58;55.01;102352.59;4942074;28;20035;-73
2023/10/08 05:18:53;;;;;;;6.38;3.20;;;;;;;20.58;54.89;102359.69;4909756;29;20539;-74
2023/10/08 05:21:25;;;;;;;6.53;3.03;;;;;;;20.58;54.68;102365.84;4939161;28;20043;-73
2023/10/08 05:24:08;;;;;;;6.75;3.05;;;;;;;20.58;54.82;102363.19;4940736;28;20039;-75
2023/10/08 05:26:41;;;;;;;7.28;3.05;;;;;;;20.57;54.62;102358.00;4943479;28;20042;-73
2023/10/08 05:29:39;;;;;;;7.15;2.60;;;;;;;20.57;54.76;102355.34;4943630;28;20039;-73
2023/10/08 05:32:30;;;;;;;7.05;2.85;;;;;;;20.57;54.80;102358.84;4942217;28;20089;-74
2023/10/08 05:34:50;;;;;;;7.05;2.70;;;;;;;20.56;54.74;102361.63;4945747;28;20031;-72
2023/10/08 05:37:32;;;;;;;5.85;3.00;;;;;;;20.56;54.97;102375.69;4947038;28;20493;-74
2023/10/08 05:40:11;;;;;;;7.30;3.20;;;;;;;20.56;54.51;102377.50;4946324;28;20082;-72
2023/10/08 05:42:45;;;;;;;5.88;2.50;;;;;;;20.57;54.71;102385.34;4929134;28;20042;-76
2023/10/08 05:52:50;;;;;;;7.47;2.97;;;;;;;20.59;54.74;102393.19;4947152;28;20612;-73
2023/10/08 05:55:26;;;;;;;5.97;3.03;;;;;;;20.59;54.94;102378.13;4948562;28;20063;-72
2023/10/08 05:58:12;;;;;;;6.35;2.97;;;;;;;20.58;54.92;102365.84;4947659;28;20031;-72
2023/10/08 06:03:39;;;;;;;5.65;2.70;;;;;;;20.60;54.83;102349.84;4949405;28;20051;-74
2023/10/08 06:07:11;;;;;;;6.57;3.17;;;;;;;20.59;54.75;102340.22;4936811;28;20047;-76
2023/10/08 06:09:20;;;;;;;8.05;2.90;;;;;;;20.58;54.74;102347.28;4948179;28;20038;-73
2023/10/08 06:12:06;;;;;;;6.28;2.60;;;;;;;20.58;54.69;102334.06;4956312;28;20027;-72
2023/10/08 06:17:34;;;;;;;7.18;2.90;;;;;;;20.58;54.41;102344.66;4959244;28;20573;-72
2023/10/08 06:20:09;;;;;;;6.80;2.97;;;;;;;20.58;54.47;102344.66;4954315;28;20062;-77
2023/10/08 06:22:35;;;;;;;6.28;2.63;;;;;;;20.58;54.83;102347.28;4936851;28;20043;-73
2023/10/08 06:25:17;;;;;;;6.72;3.00;;;;;;;20.57;54.72;102350.03;4948490;28;20046;-73
2023/10/08 06:27:44;;;;;;;6.80;2.80;;;;;;;20.56;54.58;102351.03;4944738;28;20031;-77
2023/10/08 06:30:16;;;;;;;7.50;2.80;;;;;;;20.56;54.67;102361.63;4929839;28;20058;-75
2023/10/08 06:32:44;;;;;;;6.47;3.00;;;;;;;20.55;54.47;102368.69;4948303;28;20035;-72
2023/10/08 06:35:17;;;;;;;7.85;3.17;;;;;;;20.55;54.67;102376.63;4945361;28;20097;-77
2023/10/08 06:37:43;;;;;;;5.70;3.20;;;;;;;20.56;54.61;102380.16;4943271;28;20031;-75
2023/10/08 06:40:30;;;;;;;6.82;3.03;;;;;;;20.55;54.74;102371.34;4943654;28;20042;-73
2023/10/08 06:42:56;;;;;;;5.70;2.67;;;;;;;20.56;54.60;102380.16;4945637;28;20093;-72
2023/10/08 06:45:22;;;;;;;5.88;2.80;;;;;;;20.55;54.65;102370.50;4946298;28;20444;-73
2023/10/08 06:47:48;;;;;;;5.55;2.75;;;;;;;20.54;54.70;102369.66;4948036;28;20031;-72
2023/10/08 06:50:15;;;;;;;8.20;3.58;;;;;;;20.52;54.73;102368.94;4944234;28;20051;-74
2023/10/08 06:52:43;;;;;;;8.43;3.10;;;;;;;20.53;54.95;102377.72;4947431;28;20031;-71
2023/10/08 06:55:27;;;;;;;9.00;2.95;;;;;;;20.55;54.72;102389.03;4945364;28;20039;-73
2023/10/08 06:57:52;;;;;;;7.10;3.00;;;;;;;20.52;55.18;102379.53;4941772;28;20453;-76
2023/10/08 07:00:37;;;;;;;9.07;3.25;;;;;;;20.53;55.27;102381.19;4947094;28;20066;-81
2023/10/08 07:03:03;;;;;;;5.72;2.90;;;;;;;20.53;55.10;102391.78;4945636;28;20038;-74
2023/10/08 07:05:29;;;;;;;7.18;2.90;;;;;;;20.54;55.23;102397.97;4946451;28;20098;-76
2023/10/08 07:07:54;;;;;;;9.77;3.55;;;;;;;20.56;55.21;102411.94;4944630;28;20153;-73
2023/10/08 07:10:23;;;;;;;7.20;2.85;;;;;;;20.54;55.71;102405.91;4946324;28;20042;-72
2023/10/08 07:12:49;;;;;;;8.35;2.95;;;;;;;20.55;55.38;102408.41;4943611;28;20034;-75
2023/10/08 07:15:23;;;;;;;8.32;3.28;;;;;;;20.56;55.58;102407.47;4944748;28;20031;-76
2023/10/08 07:17:51;;;;;;;7.00;3.08;;;;;;;20.57;55.69;102414.47;4943696;28;20065;-77
2023/10/08 07:20:21;;;;;;;6.85;2.88;;;;;;;20.58;55.42;102416.16;4946942;28;20043;-73
2023/10/08 07:22:53;;;;;;;8.68;3.03;;;;;;;20.59;55.39;102409.09;4944933;28;20070;-80
2023/10/08 07:25:21;;;;;;;7.60;2.90;;;;;;;20.58;55.65;102410.03;4943696;28;20047;-72
2023/10/08 07:27:47;;;;;;;8.02;3.40;;;;;;;20.54;56.19;102412.03;4944578;28;20078;-75
2023/10/08 07:30:13;;;;;;;7.35;2.78;;;;;;;20.45;56.46;102420.59;4943461;28;20496;-74
2023/10/08 07:32:41;;;;;;;6.43;3.10;;;;;;;20.41;56.90;102425.25;4940382;28;20067;-73
2023/10/08 07:35:25;;;;;;;7.68;3.40;;;;;;;20.36;57.29;102415.91;4941583;28;20054;-75
2023/10/08 07:37:53;;;;;;;;;;;;;;;20.36;57.16;102419.41;4941285;28;20031;-74
2023/10/08 07:40:20;;;;;;;7.50;3.00;;;;;;;20.36;57.04;102434.44;4942762;28;19986;-74
2023/10/08 07:43:08;;;;;;;6.35;3.22;;;;;;;20.37;57.24;102436.97;4947441;28;20031;-74
2023/10/08 07:45:35;;;;;;;12.48;4.65;;;;;;;20.40;58.26;102428.84;4948385;28;20067;-73
2023/10/08 07:48:01;;;;;;;11.30;4.40;;;;;;;20.38;59.86;102429.91;4941048;28;20046;-76
2023/10/08 07:50:28;;;;;;;9.45;3.75;;;;;;;20.37;59.49;102423.75;4940972;28;20035;-76
2023/10/08 07:52:55;;;;;;;10.23;4.07;;;;;;;20.41;59.62;102427.03;4942398;28;20053;-77
2023/10/08 07:55:22;;;;;;;9.68;3.88;;;;;;;20.44;59.73;102421.53;4940178;28;20035;-76
2023/10/08 07:57:48;;;;;;;9.75;4.20;;;;;;;20.46;59.85;102427.59;4944504;28;20825;-82
2023/10/08 08:00:25;;;;;;;11.88;4.15;;;;;;;20.46;59.70;102428.44;4931076;28;20066;-73
2023/10/08 08:02:56;;;;;;;9.95;4.03;;;;;;;20.47;59.68;102432.78;4947571;28;20894;-74
2023/10/08 08:05:21;;;;;;;7.97;3.92;;;;;;;20.50;59.43;102437.00;4942632;28;20035;-75
2023/10/08 08:07:49;;;;;;;11.10;3.97;;;;;;;20.51;59.28;102436.06;4940593;28;20057;-77
2023/10/08 08:10:15;;;;;;;12.57;4.30;;;;;;;20.54;59.62;102437.69;4942864;28;20095;-78
2023/10/08 08:12:42;;;;;;;10.52;4.05;;;;;;;20.53;59.37;102452.69;4943989;28;20034;-75
2023/10/08 08:15:16;;;;;;;8.55;3.92;;;;;;;20.52;59.36;102458.09;4945207;28;20031;-73
2023/10/08 08:17:42;;;;;;;8.45;3.90;;;;;;;20.53;59.54;102465.94;4946395;28;20067;-72
2023/10/08 08:20:50;;;;;;;9.18;3.92;;;;;;;20.54;59.94;102464.16;4943265;28;20038;-78
2023/10/08 08:22:56;;;;;;;11.25;3.83;;;;;;;20.53;59.86;102463.28;4946274;28;20038;-78
2023/10/08 08:25:34;;;;;;;9.68;3.65;;;;;;;20.54;59.58;102467.66;4949846;28;20035;-73
2023/10/08 08:27:59;;;;;;;7.95;3.42;;;;;;;20.55;59.92;102477.28;4950621;28;20046;-76
2023/10/08 08:30:26;;;;;;;9.95;3.83;;;;;;;20.54;59.76;102486.19;4949398;28;20055;-75
2023/10/08 08:32:52;;;;;;;7.22;3.65;;;;;;;20.55;59.80;102484.38;4950289;28;20166;-73
2023/10/08 08:35:17;;;;;;;7.93;3.42;;;;;;;20.54;59.81;102499.44;4937491;28;20031;-75
2023/10/08 08:37:45;;;;;;;8.02;3.53;;;;;;;20.55;59.63;102510.88;4947862;28;20110;-75
2023/10/08 08:40:21;;;;;;;9.15;3.83;;;;;;;20.54;59.64;102502.09;4932860;28;20039;-74
2023/10/08 08:42:48;;;;;;;8.60;3.80;;;;;;;20.55;59.77;102508.22;4942329;28;20511;-75
2023/10/08 08:45:20;;;;;;;10.15;4.20;;;;;;;20.55;59.50;102509.06;4945254;28;20027;-76
2023/10/08 08:47:46;;;;;;;9.85;3.97;;;;;;;20.58;59.67;102508.88;4944488;28;20500;-74
2023/10/08 08:50:11;;;;;;;8.40;4.15;;;;;;;20.58;59.76;102508.03;4944833;28;20039;-76
2023/10/08 08:52:37;;;;;;;8.65;3.72;;;;;;;20.57;59.92;102511.63;4946811;28;20077;-77
2023/10/08 08:55:14;;;;;;;12.18;4.03;;;;;;;20.55;59.76;102509.06;4939629;28;20027;-74
2023/10/08 08:57:41;;;;;;;10.50;3.53;;;;;;;20.56;59.73;102509.94;4943260;28;20064;-75
2023/10/08 09:00:11;;;;;;;11.85;3.95;;;;;;;20.55;59.69;102506.41;4946200;28;20035;-74
2023/10/08 09:02:39;;;;;;;9.73;4.32;;;;;;;20.55;59.75;102508.22;4945900;28;20066;-77
2023/10/08 09:05:24;;;;;;;11.65;4.07;;;;;;;20.55;59.64;102511.72;4945745;28;20035;-73
2023/10/08 09:07:57;;;;;;;9.02;3.83;;;;;;;20.55;59.79;102511.72;4943910;28;20050;-76
2023/10/08 09:10:28;;;;;;;11.00;4.43;;;;;;;20.57;59.50;102514.25;4947082;28;20039;-76
2023/10/08 09:12:58;;;;;;;8.85;3.58;;;;;;;20.56;59.57;102520.53;4946423;28;20105;-77
2023/10/08 09:15:25;;;;;;;9.48;3.40;;;;;;;20.55;59.78;102517.00;4947177;28;20071;-79
2023/10/08 09:17:53;;;;;;;11.30;4.22;;;;;;;20.55;59.98;102522.31;4946506;28;20034;-78
2023/10/08 09:20:20;;;;;;;9.40;3.75;;;;;;;20.55;59.61;102522.31;4945770;28;20027;-78
2023/10/08 09:22:47;;;;;;;9.00;3.58;;;;;;;20.56;59.65;102529.31;4946798;28;20039;-75
2023/10/08 09:25:24;;;;;;;12.30;4.18;;;;;;;20.55;59.59;102519.66;4946096;28;20515;-76
2023/10/08 09:27:55;;;;;;;10.73;4.07;;;;;;;20.55;59.66;102522.31;4945314;28;20085;-75
2023/10/08 09:30:21;;;;;;;7.80;3.65;;;;;;;20.56;59.63;102518.72;4945822;28;20051;-77
2023/10/08 09:32:49;;;;;;;8.77;4.25;;;;;;;20.58;59.59;102516.81;4946667;28;20031;-74
2023/10/08 09:35:15;;;;;;;10.27;4.85;;;;;;;20.60;59.23;102514.94;4932478;28;20038;-76
2023/10/08 09:37:41;;;;;;;8.13;3.70;;;;;;;20.60;59.43;102525.53;4945236;28;20098;-72
2023/10/08 09:40:11;;;;;;;10.77;4.15;;;;;;;20.60;59.83;102522.00;4946600;28;20488;-73
2023/10/08 09:42:38;;;;;;;12.10;4.30;;;;;;;20.61;59.52;102529.00;4952978;28;20074;-82
2023/10/08 09:45:05;;;;;;;8.27;3.83;;;;;;;20.62;59.37;102525.44;4954230;28;20066;-75
2023/10/08 09:47:38;;;;;;;8.07;3.75;;;;;;;20.60;59.50;102519.34;4948840;28;20377;-70
2023/10/08 09:50:08;;;;;;;12.45;3.95;;;;;;;20.61;59.61;102521.91;4946190;28;20035;-74
2023/10/08 09:52:44;;;;;;;10.60;3.80;;;;;;;20.57;59.78;102517.78;4942675;28;20035;-72
2023/10/08 09:55:10;;;;;;;9.52;4.10;;;;;;;20.62;59.65;102512.19;4941226;28;20039;-69
2023/10/08 09:57:36;;;;;;;8.85;4.10;;;;;;;20.66;59.46;102511.03;4945153;28;20046;-71
2023/10/08 10:00:05;;;;;;;10.45;4.05;;;;;;;20.68;59.42;102509.16;4944452;28;20463;-71
2023/10/08 10:02:32;;;;;;;9.18;4.20;;;;;;;20.68;59.46;102509.16;4933393;28;20036;-69
2023/10/08 10:04:57;;;;;;;11.20;3.97;;;;;;;20.70;59.58;102495.81;4944260;28;20073;-73
2023/10/08 10:07:25;;;;;;;12.55;4.15;;;;;;;20.70;59.43;102493.16;4945918;28;20122;-76
2023/10/08 10:09:53;;;;;;;9.43;4.15;;;;;;;20.72;59.58;102485.97;4952983;28;20086;-72
2023/10/08 10:12:25;;;;;;;11.27;4.55;;;;;;;20.74;59.76;102482.25;4946911;28;20035;-76
2023/10/08 10:14:56;;;;;;;8.45;3.70;;;;;;;20.75;59.34;102486.59;4949351;28;20046;-73
2023/10/08 10:17:28;;;;;;;9.15;4.15;;;;;;;20.77;59.34;102486.50;4949791;28;20031;-76
2023/10/08 10:20:00;;;;;;;9.70;3.63;;;;;;;20.76;59.26;102490.94;4944660;28;20043;-76
2023/10/08 10:22:31;;;;;;;9.18;3.60;;;;;;;20.78;59.19;102497.00;4941161;28;20101;-71
2023/10/08 10:24:57;;;;;;;11.05;3.90;;;;;;;20.79;59.24;102498.69;4943065;28;20102;-85
2023/10/08 10:27:23;;;;;;;10.00;3.20;;;;;;;20.79;59.37;102504.00;4944555;28;20035;-73
2023/10/08 10:29:48;;;;;;;8.38;4.00;;;;;;;20.81;59.49;102509.19;4948602;28;20600;-75
2023/10/08 10:32:15;;;;;;;7.80;3.95;;;;;;;20.82;59.22;102495.84;4944727;28;20065;-81
2023/10/08 10:34:43;;;;;;;9.35;3.80;;;;;;;20.84;59.27;102488.63;4943936;28;20035;-74
2023/10/08 10:37:09;;;;;;;10.80;4.38;;;;;;;20.86;59.20;102491.19;4946105;28;20035;-75
2023/10/08 10:39:39;;;;;;;10.48;3.90;;;;;;;20.87;59.32;102492.91;4944685;28;20496;-74
2023/10/08 10:42:06;;;;;;;11.43;4.53;;;;;;;20.90;59.20;102497.13;4944326;28;20066;-74
2023/10/08 10:44:36;;;;;;;9.40;3.83;;;;;;;20.89;59.03;102503.38;4935057;28;20117;-81
2023/10/08 10:49:53;;;;;;;10.05;3.90;;;;;;;20.89;59.50;102511.34;4942974;28;20428;-72
2023/10/08 10:52:44;;;;;;;9.65;4.25;;;;;;;20.91;59.44;102509.44;4944176;28;20070;-71
2023/10/08 10:58:06;;;;;;;8.73;4.47;;;;;;;20.83;59.65;102499.34;4943287;28;20031;-74
2023/10/08 11:03:03;;;;;;;7.73;3.70;;;;;;;20.89;59.50;102506.03;4943737;28;20038;-74
2023/10/08 11:05:31;;;;;;;10.73;4.05;;;;;;;20.96;59.48;102502.00;4941355;28;20272;-70
2023/10/08 11:08:04;;;;;;;9.15;3.80;;;;;;;21.02;59.04;102497.13;4945896;28;20035;-71
2023/10/08 11:10:38;;;;;;;7.63;3.70;;;;;;;21.03;59.01;102500.66;4951085;28;20544;-80
2023/10/08 11:13:14;;;;;;;7.55;3.88;;;;;;;21.11;59.28;102500.09;4955205;28;20066;-75
2023/10/08 11:15:42;;;;;;;10.32;3.95;;;;;;;21.15;59.04;102501.59;4958343;28;20435;-82
2023/10/08 11:18:09;;;;;;;8.82;3.33;;;;;;;21.18;58.86;102498.75;4960051;28;20459;-73
2023/10/08 11:20:39;;;;;;;11.60;3.88;;;;;;;21.21;58.65;102498.53;4955740;28;20748;-74
2023/10/08 11:23:21;;;;;;;9.00;3.15;;;;;;;21.22;58.45;102513.50;4960148;28;20038;-75
2023/10/08 11:26:02;;;;;;;9.60;4.20;;;;;;;21.25;58.20;102509.78;4954023;28;20035;-78
2023/10/08 11:28:43;;;;;;;8.88;3.63;;;;;;;21.23;58.36;102509.03;4937871;28;20050;-79
2023/10/08 11:31:13;;;;;;;7.50;3.53;;;;;;;21.22;58.66;102504.69;4953003;28;20055;-74
2023/10/08 11:33:58;;;;;;;11.52;3.90;;;;;;;21.15;59.13;102504.25;4947527;28;20034;-72
2023/10/08 11:36:30;;;;;;;12.20;4.20;;;;;;;21.05;59.67;102495.25;4949693;28;20054;-76
2023/10/08 11:39:00;;;;;;;9.13;4.07;;;;;;;20.99;59.55;102504.47;4944557;28;20038;-75
2023/10/08 11:41:27;;;;;;;7.57;3.20;;;;;;;20.91;59.58;102498.81;4942494;28;20403;-74
2023/10/08 11:43:57;;;;;;;8.00;3.97;;;;;;;20.87;59.43;102500.84;4942148;28;20051;-76
2023/10/08 11:46:38;;;;;;;8.80;4.30;;;;;;;20.86;59.52;102498.28;4944034;28;20847;-74
2023/10/08 11:49:04;;;;;;;7.55;4.13;;;;;;;20.86;59.40;102498.28;4947469;28;20606;-75
2023/10/08 11:51:34;;;;;;;12.20;4.35;;;;;;;20.86;59.66;102491.19;4944778;28;20066;-75
2023/10/08 11:54:05;;;;;;;8.55;3.85;;;;;;;20.85;59.39;102486.81;4948599;28;20046;-75
2023/10/08 11:56:41;;;;;;;8.30;3.70;;;;;;;20.85;59.41;102489.47;4947153;28;20047;-77
2023/10/08 11:59:09;;;;;;;7.95;3.67;;;;;;;20.85;59.55;102484.16;4942839;28;20559;-74
2023/10/08 12:01:37;;;;;;;9.15;4.03;;;;;;;20.84;59.84;102478.03;4945652;28;20039;-75
2023/10/08 12:04:03;;;;;;;7.75;3.20;;;;;;;20.86;59.54;102474.44;4928755;28;20038;-73
2023/10/08 12:06:30;;;;;;;7.20;3.50;;;;;;;20.85;59.05;102465.63;4943134;28;20035;-75
2023/10/08 12:09:14;;;;;;;7.45;3.47;;;;;;;20.87;59.05;102468.16;4944502;28;20133;-79
2023/10/08 12:11:40;;;;;;;8.50;3.97;;;;;;;20.87;59.25;102463.75;4944010;28;20429;-74
2023/10/08 12:14:05;;;;;;;7.80;3.60;;;;;;;20.87;59.45;102460.22;4944639;28;20082;-80
2023/10/08 12:16:35;;;;;;;7.65;3.90;;;;;;;20.86;59.33;102462.03;4944456;28;20111;-73